KMER/MER METAR and TAF weather

Enter ICAO airport designator
Station Type Date Time Source
KMER METAR 2019/08/22 02:45 UTC NOAA

KMER 220245Z 33010KT 10SM SKC A2979


Station Type Date Time Source
KMER Decoded METAR 2019/08/22 02:45 UTC NOAA

Station name not available
Aug 21, 2019 - 10:45 PM EDT / 2019.08.22 0245 UTC
Wind: from the NNW (330 degrees) at 12 MPH (10 KT):0
Visibility: 10 mile(s):0
Sky conditions: clear
Pressure (altimeter): 29.79 in. Hg (1008 hPa)
ob: KMER 220245Z 33010KT 10SM SKC A2979
cycle: 3

Station Type Date Time Source
KMER TAF 2019/08/22 06:26 UTC NOAA

TAF KMER 220520Z 2206/2306 33008KT P6SM SKC
AMD NOT SKED

Example: see airport list